Latest Weather Observations for Maatsuyker Island

IDT60801

Issued at 11:11 pm EST Friday 23 April 2021 (issued every 10 minutes, with the page automatically refreshed every 10 minutes)

About weather observations | Map of weather stations | Latest weather observations for TAS | Other Formats
Station Details ID: 094041 Name: MAATSUYKER ISLAND LIGHTHOUSE Lat: -43.66 Lon: 146.27 Height: 146.5 m
Data from the previous 72 hours. | See also: Recent months at Maatsuyker Island
Date/Time
EST
Temp
°C
App
Temp
°C
Dew
Point
°C
Rel
Hum
%
Delta-T
°C
Wind Press
QNH
hPa
Press
MSL
hPa
Rain since
9am
mm
Dir  Spd
km/h
Gust
km/h
Spd
kts
Gust
kts
23/11:00pm 10.9 - - - - WNW 67 76 36 41 1010.6 1010.6 5.8
23/10:32pm 10.6 - - - - NW 70 89 38 48 1011.1 - 5.6
23/10:30pm 10.3 - - - - NW 74 89 40 48 1010.8 - 5.4
23/10:00pm 10.7 - - - - NW 72 82 39 44 1010.5 - 5.0
23/09:30pm 11.2 - - - - NW 67 74 36 40 1010.3 - 4.8
23/09:00pm 10.6 - - - - NW 70 82 38 44 1010.3 1010.3 4.8
23/08:30pm 10.7 - - - - WNW 65 76 35 41 1010.5 - 3.8
23/08:00pm 10.5 - - - - WNW 61 72 33 39 1010.9 - 2.8
23/07:30pm 11.4 - - - - WNW 69 78 37 42 1010.1 - 1.8
23/07:00pm 11.2 - - - - NW 74 83 40 45 1009.3 - 1.8
23/06:30pm 11.2 - - - - WNW 76 85 41 46 1009.0 - 1.8
23/06:00pm 11.3 - - - - NW 85 98 46 53 1008.0 1008.0 1.8
23/05:34pm 10.6 - - - - NW 83 106 45 57 1007.1 - 1.6
23/05:30pm 11.0 - - - - NW 82 95 44 51 1007.5 - 1.0
23/05:10pm 11.3 - - - - NW 72 95 39 51 1007.0 - 1.0
23/05:00pm 11.0 - - - - NW 74 87 40 47 1007.0 - 0.8
23/04:30pm 10.5 - - - - NW 76 87 41 47 1007.1 - 0.8
23/04:00pm 10.4 - - - - NW 80 96 43 52 1007.3 - 0.4
23/03:57pm 11.1 - - - - NW 78 96 42 52 1006.8 - 0.0
23/03:30pm 11.8 - - - - NW 76 85 41 46 1007.0 - 0.0
23/03:00pm 11.6 - - - - NW 83 95 45 51 1006.7 1006.7 0.0
23/02:30pm 11.5 - - - - NW 78 89 42 48 1006.7 - 0.0
23/02:00pm 11.5 - - - - NW 76 87 41 47 1006.9 - 0.0
23/01:30pm 11.4 - - - - NW 80 89 43 48 1006.9 - 0.0
23/01:00pm 11.2 - - - - WNW 76 85 41 46 1006.9 - 0.0
23/12:30pm 10.8 - - - - WNW 74 85 40 46 1006.9 - 0.0
23/12:00pm 11.1 - - - - NW 78 91 42 49 1006.7 1006.7 0.0
23/11:30am 10.9 - - - - WNW 78 87 42 47 1007.1 - 0.0
23/11:00am 9.7 - - - - WNW 74 89 40 48 1007.1 - 0.0
23/10:30am 10.8 - - - - NW 83 98 45 53 1006.0 - 0.0
23/10:06am 10.4 - - - - NW 83 104 45 56 1005.4 - 0.0
23/10:00am 10.4 - - - - NW 82 95 44 51 1006.4 - 0.0
23/09:40am 9.6 - - - - WNW 82 100 44 54 1006.2 - 0.0
23/09:30am 10.7 - - - - WNW 80 91 43 49 1006.2 - 0.0
23/09:18am 10.8 - - - - WNW 74 93 40 50 1005.7 - 0.0
23/09:00am 10.3 - - - - WNW 65 74 35 40 1006.4 1006.4 2.0
23/08:45am 10.6 - - - - WNW 76 95 41 51 1006.0 - 2.0
23/08:30am 9.7 - - - - WNW 72 82 39 44 1006.1 - 2.0
23/08:00am 8.7 - - - - WNW 63 87 34 47 1006.4 - 1.8
23/07:53am 8.5 - - - - WNW 72 91 39 49 1006.7 - 1.8
23/07:30am 9.9 - - - - WNW 76 87 41 47 1005.6 - 1.8
23/07:00am 9.0 - - - - WNW 74 83 40 45 1005.1 - 1.8
23/06:30am 9.6 - - - - NW 74 83 40 45 1004.3 - 1.6
23/06:00am 9.6 - - - - WNW 80 104 43 56 1003.4 1003.4 1.6
23/05:59am 9.7 - - - - WNW 78 104 42 56 1003.6 - 1.6
23/05:30am 10.1 - - - - WNW 80 91 43 49 1003.6 - 1.6
23/05:00am 9.4 - - - - WNW 74 83 40 45 1003.8 - 1.6
23/04:43am 10.3 - - - - WNW 76 96 41 52 1003.6 - 1.6
23/04:30am 10.3 - - - - WNW 82 96 44 52 1003.3 - 1.6
23/04:19am 10.2 - - - - WNW 82 100 44 54 1003.2 - 1.6
23/04:00am 10.0 - - - - WNW 85 96 46 52 1002.6 - 1.6
23/03:40am 10.2 - - - - WNW 80 98 43 53 1002.6 - 1.6
23/03:30am 10.0 - - - - WNW 78 89 42 48 1002.6 - 1.6
23/03:08am 10.2 - - - - W 65 74 35 40 1003.1 - 1.6
23/03:00am 10.3 - - - - WNW 87 98 47 53 1002.1 1002.1 1.6
23/02:30am 10.3 - - - - WNW 82 93 44 50 1002.5 - 1.6
23/02:08am 10.2 - - - - WNW 83 102 45 55 1002.5 - 1.6
23/02:00am 10.2 - - - - WNW 89 102 48 55 1001.4 - 1.6
23/01:30am 9.8 - - - - WNW 78 96 42 52 1002.0 - 1.4
23/01:28am 9.9 - - - - WNW 78 96 42 52 1001.9 - 1.4
23/01:00am 10.3 - - - - WNW 87 98 47 53 1000.9 - 1.4
23/12:30am 9.6 - - - - WNW 80 98 43 53 1001.1 - 1.4
23/12:14am 10.3 - - - - W 72 82 39 44 1001.8 - 1.4
23/12:07am 10.7 - - - - WNW 93 111 50 60 1000.4 - 1.4
23/12:00am 10.7 - - - - WNW 96 111 52 60 1000.3 1000.3 1.4
 
Date/Time
EST
Temp
°C
App
Temp
°C
Dew
Point
°C
Rel
Hum
%
Delta-T
°C
Wind Press
QNH
hPa
Press
MSL
hPa
Rain since
9am
mm
Dir  Spd
km/h
Gust
km/h
Spd
kts
Gust
kts
22/11:38pm 10.7 - - - - WNW 89 107 48 58 1000.2 - 1.4
22/11:30pm 10.3 - - - - WNW 95 104 51 56 1000.6 - 1.4
22/11:00pm 9.1 - - - - WNW 91 107 49 58 1000.6 - 1.2
22/10:30pm 10.8 - - - - WNW 87 98 47 53 1000.0 - 1.2
22/10:00pm 10.7 - - - - NW 89 102 48 55 1000.1 - 1.2
22/09:32pm 10.7 - - - - NW 82 100 44 54 1000.6 - 1.2
22/09:30pm 10.8 - - - - NW 83 100 45 54 1000.7 - 1.2
22/09:00pm 9.7 - - - - NW 93 113 50 61 1000.1 1000.1 1.2
22/08:37pm 10.2 - - - - NW 93 113 50 61 999.6 - 1.0
22/08:30pm 10.3 - - - - NW 89 102 48 55 999.3 - 1.0
22/08:11pm 9.8 - - - - WNW 85 104 46 56 1000.5 - 1.0
22/08:00pm 11.2 - - - - NW 85 100 46 54 999.3 - 1.0
22/07:30pm 10.6 - - - - NW 85 95 46 51 999.3 - 1.0
22/07:18pm 10.7 - - - - WNW 83 106 45 57 999.9 - 1.0
22/07:00pm 10.6 - - - - WNW 78 87 42 47 1000.3 - 1.0
22/06:30pm 10.3 - - - - WNW 80 95 43 51 999.9 - 1.0
22/06:18pm 9.3 - - - - WNW 80 98 43 53 1000.4 - 1.0
22/06:00pm 10.9 - - - - WNW 83 96 45 52 999.2 999.2 1.0
22/05:30pm 9.7 - - - - WNW 91 106 49 57 998.9 - 1.0
22/05:10pm 10.6 - - - - WNW 85 104 46 56 999.4 - 0.8
22/05:00pm 11.4 - - - - NW 95 104 51 56 998.1 - 0.8
22/04:30pm 11.7 - - - - WNW 89 104 48 56 998.1 - 0.8
22/04:00pm 11.5 - - - - WNW 89 100 48 54 998.1 - 0.8
22/03:51pm 11.5 - - - - WNW 91 109 49 59 998.2 - 0.8
22/03:30pm 11.7 - - - - WNW 91 104 49 56 997.9 - 0.8
22/03:00pm 11.6 - - - - WNW 87 100 47 54 997.6 997.5 0.8
22/02:41pm 11.7 - - - - WNW 83 102 45 55 997.0 - 0.8
22/02:30pm 11.6 - - - - WNW 82 91 44 49 997.2 - 0.8
22/02:00pm 11.1 - - - - WNW 82 95 44 51 997.3 - 0.8
22/01:30pm 10.9 - - - - WNW 82 95 44 51 997.4 - 0.8
22/01:06pm 11.4 - - - - WNW 80 98 43 53 997.0 - 0.8
22/01:00pm 11.8 - - - - WNW 85 98 46 53 997.2 - 0.8
22/12:30pm 10.8 - - - - WNW 89 102 48 55 996.8 - 0.8
22/12:20pm 10.8 - - - - WNW 87 106 47 57 996.1 - 0.6
22/12:00pm 11.8 - - - - NW 93 109 50 59 996.2 996.1 0.6
22/11:30am 11.1 - - - - NW 95 107 51 58 995.5 - 0.6
22/11:00am 10.6 - - - - NW 100 119 54 64 994.5 - 0.4
22/10:56am 11.1 - - - - NW 102 120 55 65 995.3 - 0.4
22/10:47am 11.8 - - - - NW 109 120 59 65 994.1 - 0.4
22/10:35am 11.8 - - - - NW 91 111 49 60 994.8 - 0.4
22/10:30am 11.8 - - - - NW 87 104 47 56 995.4 - 0.4
22/10:00am 11.7 - - - - NW 91 109 49 59 995.7 - 0.4
22/09:43am 11.4 - - - - NW 91 109 49 59 995.3 - 0.4
22/09:30am 11.1 - - - - NW 91 104 49 56 996.0 - 0.4
22/09:11am 9.7 - - - - NW 89 107 48 58 996.0 - 0.0
22/09:00am 10.8 - - - - NW 83 100 45 54 996.7 996.6 8.8
22/08:42am 10.2 - - - - NW 89 109 48 59 996.9 - 8.2
22/08:30am 11.0 - - - - NW 91 106 49 57 996.3 - 8.0
22/08:18am 10.6 - - - - NW 96 115 52 62 996.3 - 8.0
22/08:11am 10.1 - - - - NW 106 115 57 62 996.1 - 8.0
22/08:04am 10.9 - - - - NW 87 106 47 57 996.3 - 8.0
22/08:00am 10.9 - - - - NW 83 98 45 53 996.4 - 8.0
22/07:46am 10.5 - - - - NW 91 109 49 59 996.4 - 8.0
22/07:30am 10.3 - - - - NW 104 117 56 63 995.8 - 7.8
22/07:00am 11.2 - - - - NW 100 119 54 64 996.2 - 7.8
22/06:30am 9.3 - - - - NW 96 115 52 62 995.9 - 7.8
22/06:04am 10.6 - - - - NW 83 106 45 57 996.2 - 7.6
22/06:00am 10.5 - - - - NW 83 100 45 54 996.8 996.7 7.6
22/05:42am 11.6 - - - - NW 89 107 48 58 996.2 - 7.6
22/05:30am 11.6 - - - - NW 83 98 45 53 996.3 - 7.6
22/05:00am 11.5 - - - - NW 85 98 46 53 996.6 - 7.6
22/04:48am 11.4 - - - - NW 87 106 47 57 996.6 - 7.6
22/04:30am 11.4 - - - - NW 95 109 51 59 996.4 - 7.6
22/04:00am 11.2 - - - - NW 100 111 54 60 996.3 - 7.6
22/03:59am 11.1 - - - - NW 100 111 54 60 996.3 - 7.6
22/03:33am 10.9 - - - - NW 80 100 43 54 997.0 - 7.6
22/03:30am 10.8 - - - - NW 76 91 41 49 997.6 - 7.6
22/03:00am 10.2 - - - - NW 89 109 48 59 997.7 997.7 7.6
22/02:30am 11.2 - - - - NW 74 93 40 50 998.1 - 7.0
22/02:00am 11.5 - - - - NW 82 98 44 53 998.3 - 7.0
22/01:33am 11.3 - - - - NW 72 91 39 49 998.6 - 7.0
22/01:30am 11.3 - - - - NW 72 87 39 47 998.9 - 7.0
22/01:25am 11.2 - - - - NW 76 95 41 51 999.2 - 7.0
22/01:00am 11.0 - - - - NW 80 95 43 51 999.1 - 7.0
22/12:30am 10.8 - - - - NW 82 95 44 51 999.0 - 7.0
22/12:00am 10.6 - - - - NW 87 96 47 52 999.5 999.5 7.0
 
Date/Time
EST
Temp
°C
App
Temp
°C
Dew
Point
°C
Rel
Hum
%
Delta-T
°C
Wind Press
QNH
hPa
Press
MSL
hPa
Rain since
9am
mm
Dir  Spd
km/h
Gust
km/h
Spd
kts
Gust
kts
21/11:51pm 10.4 - - - - NW 69 87 37 47 999.7 - 7.0
21/11:30pm 9.9 - - - - NW 80 89 43 48 999.6 - 7.0
21/11:13pm 9.8 - - - - NW 70 89 38 48 1000.1 - 6.8
21/11:00pm 9.8 - - - - NW 63 74 34 40 1000.7 - 6.4
21/10:30pm 9.8 - - - - NW 65 78 35 42 1001.1 - 5.8
21/10:00pm 9.8 - - - - WNW 69 85 37 46 1001.3 - 5.6
21/09:30pm 9.8 - - - - NW 63 76 34 41 1001.9 - 5.2
21/09:26pm 10.0 - - - - NW 65 83 35 45 1001.9 - 4.6
21/09:20pm 10.0 - - - - NW 74 83 40 45 1001.5 - 2.8
21/09:00pm 10.4 - - - - NW 50 69 27 37 1001.7 1001.7 0.6
21/08:36pm 11.2 - - - - NW 46 65 25 35 1002.1 - 0.4
21/08:30pm 11.1 - - - - NW 50 65 27 35 1002.3 - 0.4
21/08:01pm 10.6 - - - - NW 50 69 27 37 1002.3 - 0.4
21/08:00pm 10.6 - - - - NW 50 65 27 35 1002.4 - 0.4
21/07:32pm 10.7 - - - - NW 46 65 25 35 1002.8 - 0.4
21/07:30pm 10.7 - - - - NW 50 65 27 35 1002.7 - 0.4
21/07:00pm 10.7 - - - - NW 50 69 27 37 1002.9 - 0.4
21/06:44pm 10.6 - - - - NW 50 70 27 38 1003.0 - 0.4
21/06:30pm 10.2 - - - - NW 50 67 27 36 1003.2 - 0.4
21/06:08pm 10.4 - - - - NW 52 70 28 38 1002.9 - 0.2
21/06:00pm 10.3 - - - - NW 50 63 27 34 1003.1 1003.0 0.2
21/05:38pm 10.5 - - - - NW 54 72 29 39 1003.4 - 0.2
21/05:30pm 10.3 - - - - NW 57 72 31 39 1003.6 - 0.2
21/05:10pm 10.2 - - - - NW 56 78 30 42 1003.4 - 0.2
21/05:00pm 10.1 - - - - NW 57 72 31 39 1003.8 - 0.2
21/04:34pm 10.3 - - - - NW 52 70 28 38 1004.1 - 0.0
21/04:30pm 10.5 - - - - NW 50 67 27 36 1004.2 - 0.0
21/04:00pm 10.4 - - - - NW 52 72 28 39 1004.5 - 0.0
21/03:36pm 10.2 - - - - NW 46 65 25 35 1005.2 - 0.0
21/03:30pm 10.1 - - - - NW 46 57 25 31 1005.3 - 0.0
21/03:16pm 10.0 - - - - NW 43 61 23 33 1005.6 - 0.0
21/03:00pm 9.9 - - - - NW 46 59 25 32 1005.8 1005.8 0.0
21/02:49pm 9.9 - - - - NW 48 67 26 36 1005.8 - 0.0
21/02:30pm 10.3 - - - - NW 48 65 26 35 1006.1 - 0.0
21/02:22pm 10.3 - - - - NW 46 65 25 35 1006.2 - 0.0
21/02:00pm 10.5 - - - - NW 52 67 28 36 1006.3 - 0.0
21/01:30pm 10.8 - - - - NNW 48 72 26 39 1006.8 - 0.0
21/01:03pm 10.4 - - - - NNW 44 63 24 34 1007.2 - 0.0
21/01:00pm 9.9 - - - - NW 44 52 24 28 1007.4 - 0.0
21/12:59pm 9.8 - - - - NNW 43 52 23 28 1007.5 - 0.0
21/12:43pm 9.6 - - - - NNW 63 82 34 44 1007.2 - 0.0
21/12:42pm 9.6 - - - - NNW 65 80 35 43 1007.0 - 0.0
21/12:31pm 10.1 - - - - NW 44 69 24 37 1007.8 - 0.0
21/12:30pm 10.4 - - - - NW 44 59 24 32 1008.0 - 0.0
21/12:00pm 9.9 - - - - NW 46 59 25 32 1008.7 1008.7 0.0
21/11:48am 9.9 - - - - NW 43 65 23 35 1008.8 - 0.0
21/11:30am 10.1 - - - - NW 43 54 23 29 1009.4 - 0.0
21/11:00am 9.0 - - - - NW 41 56 22 30 1009.9 - 0.0
21/10:51am 9.5 - - - - NW 41 59 22 32 1009.9 - 0.0
21/10:30am 8.7 - - - - NW 39 54 21 29 1010.3 - 0.0
21/10:00am 9.1 - - - - NNW 37 57 20 31 1010.6 - 0.0
21/09:59am 8.9 - - - - NW 37 57 20 31 1010.5 - 0.0
21/09:30am 8.2 - - - - NNW 35 50 19 27 1010.8 - 0.0
21/09:00am 8.1 - - - - NW 33 46 18 25 1011.2 1011.2 0.4
21/08:30am 7.9 - - - - NW 37 48 20 26 1011.7 - 0.4
21/08:03am 7.8 - - - - NW 35 54 19 29 1011.7 - 0.4
21/08:00am 7.8 - - - - NNW 33 48 18 26 1011.8 - 0.4
21/07:30am 7.7 - - - - NW 33 44 18 24 1011.9 - 0.4
21/07:00am 7.7 - - - - NW 35 46 19 25 1011.9 - 0.4
21/06:30am 8.1 - - - - NW 30 39 16 21 1012.2 - 0.4
21/06:00am 7.4 - - - - NW 26 37 14 20 1012.3 1012.3 0.4
21/05:30am 7.3 - - - - NW 30 41 16 22 1012.3 - 0.4
21/05:00am 7.4 - - - - NW 30 41 16 22 1012.2 - 0.4
21/04:30am 7.2 - - - - NW 28 39 15 21 1012.3 - 0.4
21/04:00am 7.5 - - - - NW 28 43 15 23 1012.3 - 0.4
21/03:30am 7.2 - - - - NW 28 43 15 23 1012.4 - 0.4
21/03:00am 7.2 - - - - NW 37 48 20 26 1012.6 1012.6 0.4
21/02:30am 7.6 - - - - NW 28 35 15 19 1012.9 - 0.4
21/02:00am 7.5 - - - - NW 32 39 17 21 1013.1 - 0.4
21/01:30am 7.2 - - - - NW 28 35 15 19 1013.3 - 0.4
21/01:00am 7.4 - - - - NW 22 33 12 18 1013.2 - 0.4
21/12:30am 7.5 - - - - NW 22 32 12 17 1013.3 - 0.4
21/12:00am 7.0 - - - - NNW 17 24 9 13 1013.3 1013.3 0.4
 
Date/Time
EST
Temp
°C
App
Temp
°C
Dew
Point
°C
Rel
Hum
%
Delta-T
°C
Wind Press
QNH
hPa
Press
MSL
hPa
Rain since
9am
mm
Dir  Spd
km/h
Gust
km/h
Spd
kts
Gust
kts
20/11:30pm 7.4 - - - - NW 17 20 9 11 1013.4 - 0.4

Other formats

Comma delimited format used in spreadsheet applications
http://www.bom.gov.au/fwo/IDT60801/IDT60801.94962.axf

JavaScript Object Notation format (JSON) in row-major order
http://www.bom.gov.au/fwo/IDT60801/IDT60801.94962.json

Data quality

Most of these data are generated automatically and are frequently updated. Quality checks on data are not normally performed. It is possible for incorrect values to appear. Refer to information at About Latest Weather Observations and please check the disclaimer before using these data.